Time;durP1;ratioP1;P1;durP2;ratioP2;P2;SDS_P1;SDS_P2;PMS_P1;PMS_P2;Temp;Humidity;BMP_temperature;BMP_pressure;BME280_temperature;BME280_humidity;BME280_pressure;Samples;Min_cycle;Max_cycle;Signal;HPM_P1;HPM_P2
2021/07/23 00:01:24;;;;;;;35.15;17.60;;;;;;;;;;4988049;28;20069;-57
2021/07/23 00:03:50;;;;;;;26.70;17.70;;;;;;;;;;4986564;28;20054;-57
2021/07/23 00:06:16;;;;;;;23.40;17.13;;;;;;;;;;4985829;28;20042;-56
2021/07/23 00:08:41;;;;;;;27.52;17.77;;;;;;;;;;4989552;28;20162;-57
2021/07/23 00:11:07;;;;;;;26.98;18.05;;;;;;;;;;4991918;28;20046;-57
2021/07/23 00:13:33;;;;;;;26.52;17.33;;;;;;;;;;4988162;28;20414;-56
2021/07/23 00:15:59;;;;;;;34.35;17.63;;;;;;;;;;4990759;28;20034;-57
2021/07/23 00:18:25;;;;;;;26.65;17.10;;;;;;;;;;4991766;28;20140;-56
2021/07/23 00:20:50;;;;;;;26.63;17.77;;;;;;;;;;4991670;28;20041;-56
2021/07/23 00:23:16;;;;;;;33.70;17.30;;;;;;;;;;4990205;28;20129;-57
2021/07/23 00:25:42;;;;;;;26.50;16.65;;;;;;;;;;4990717;28;20174;-56
2021/07/23 00:28:08;;;;;;;26.63;17.20;;;;;;;;;;4987866;28;20121;-57
2021/07/23 00:30:34;;;;;;;23.23;16.95;;;;;;;;;;4990913;28;20042;-56
2021/07/23 00:33:02;;;;;;;25.40;17.35;;;;;;;;;;4991333;28;20135;-57
2021/07/23 00:35:28;;;;;;;26.23;17.77;;;;;;;;;;4989563;28;20137;-56
2021/07/23 00:37:57;;;;;;;26.63;16.65;;;;;;;;;;4989328;28;20052;-56
2021/07/23 00:40:26;;;;;;;34.63;17.40;;;;;;;;;;4989580;28;20133;-57
2021/07/23 00:42:52;;;;;;;29.67;18.17;;;;;;;;;;4993708;28;20333;-56
2021/07/23 00:45:18;;;;;;;29.05;17.00;;;;;;;;;;4987771;28;20375;-57
2021/07/23 00:47:47;;;;;;;27.60;17.40;;;;;;;;;;4999003;28;20043;-57
2021/07/23 00:50:13;;;;;;;28.77;17.08;;;;;;;;;;4992517;28;20127;-56
2021/07/23 00:52:39;;;;;;;24.45;16.55;;;;;;;;;;4991219;28;20039;-55
2021/07/23 00:55:06;;;;;;;26.23;16.83;;;;;;;;;;4991958;28;20042;-56
2021/07/23 00:57:32;;;;;;;22.55;16.70;;;;;;;;;;4987549;28;20046;-56
2021/07/23 01:00:00;;;;;;;24.50;16.58;;;;;;;;;;4992071;28;20041;-57
2021/07/23 01:02:25;;;;;;;25.88;17.10;;;;;;;;;;4991086;28;20120;-57
2021/07/23 01:04:51;;;;;;;24.58;15.77;;;;;;;;;;4990294;28;20039;-57
2021/07/23 01:07:17;;;;;;;23.65;16.38;;;;;;;;;;4989282;28;20084;-57
2021/07/23 01:09:43;;;;;;;26.00;16.42;;;;;;;;;;4989819;28;20046;-57
2021/07/23 01:12:10;;;;;;;27.98;16.73;;;;;;;;;;4985297;28;20041;-56
2021/07/23 01:14:36;;;;;;;25.50;15.80;;;;;;;;;;4980399;28;20045;-55
2021/07/23 01:17:02;;;;;;;25.08;16.30;;;;;;;;;;4985999;28;20038;-56
2021/07/23 01:19:31;;;;;;;22.15;15.88;;;;;;;;;;4983103;28;20053;-57
2021/07/23 01:21:59;;;;;;;22.60;14.70;;;;;;;;;;4986026;28;20155;-56
2021/07/23 01:24:25;;;;;;;25.05;16.05;;;;;;;;;;4984761;28;20550;-57
2021/07/23 01:26:53;;;;;;;22.42;15.52;;;;;;;;;;4984376;28;20068;-59
2021/07/23 01:29:18;;;;;;;25.33;16.50;;;;;;;;;;4984736;28;20068;-56
2021/07/23 01:31:44;;;;;;;24.25;15.40;;;;;;;;;;4985127;28;20086;-57
2021/07/23 01:34:10;;;;;;;20.75;13.82;;;;;;;;;;4984120;28;20408;-56
2021/07/23 01:36:36;;;;;;;26.58;15.93;;;;;;;;;;4983751;28;20158;-56
2021/07/23 01:39:02;;;;;;;25.25;16.00;;;;;;;;;;4985736;28;20038;-57
2021/07/23 01:41:28;;;;;;;22.85;15.30;;;;;;;;;;4984373;28;20104;-57
2021/07/23 01:43:54;;;;;;;24.58;15.45;;;;;;;;;;4985229;28;20067;-57
2021/07/23 01:46:20;;;;;;;25.48;16.58;;;;;;;;;;4983516;28;20166;-57
2021/07/23 01:48:45;;;;;;;25.13;15.85;;;;;;;;;;4984791;28;20286;-56
2021/07/23 01:51:11;;;;;;;23.85;15.50;;;;;;;;;;4985385;28;20078;-57
2021/07/23 01:53:37;;;;;;;26.88;15.02;;;;;;;;;;4984820;28;22055;-56
2021/07/23 01:56:03;;;;;;;22.23;15.57;;;;;;;;;;4983435;28;20081;-57
2021/07/23 01:58:31;;;;;;;25.67;15.13;;;;;;;;;;4984722;28;20686;-55
2021/07/23 02:00:58;;;;;;;22.70;14.98;;;;;;;;;;4984419;28;20035;-57
2021/07/23 02:03:24;;;;;;;23.60;14.88;;;;;;;;;;4984324;28;20042;-56
2021/07/23 02:05:50;;;;;;;27.60;15.75;;;;;;;;;;4983696;28;20166;-56
2021/07/23 02:08:15;;;;;;;26.08;16.08;;;;;;;;;;4984986;28;20487;-57
2021/07/23 02:10:41;;;;;;;22.20;14.18;;;;;;;;;;4984509;28;20196;-56
2021/07/23 02:13:07;;;;;;;21.55;14.45;;;;;;;;;;4984827;28;20460;-56
2021/07/23 02:15:33;;;;;;;24.95;14.52;;;;;;;;;;4982752;28;20046;-55
2021/07/23 02:17:59;;;;;;;22.83;13.80;;;;;;;;;;4984568;28;20037;-57
2021/07/23 02:20:24;;;;;;;25.48;14.98;;;;;;;;;;4983750;28;20607;-57
2021/07/23 02:22:50;;;;;;;23.20;15.20;;;;;;;;;;4983555;28;20056;-57
2021/07/23 02:25:16;;;;;;;22.90;14.55;;;;;;;;;;4983526;28;20233;-56
2021/07/23 02:27:42;;;;;;;24.88;14.40;;;;;;;;;;4984146;28;20088;-58
2021/07/23 02:30:08;;;;;;;23.88;14.63;;;;;;;;;;4998127;28;20128;-55
2021/07/23 02:32:34;;;;;;;24.27;14.30;;;;;;;;;;4983584;28;20475;-56
2021/07/23 02:35:00;;;;;;;26.02;14.50;;;;;;;;;;4984295;28;20042;-56
2021/07/23 02:37:25;;;;;;;19.98;13.18;;;;;;;;;;4982960;28;20050;-56
2021/07/23 02:39:51;;;;;;;27.45;13.63;;;;;;;;;;4984297;28;20045;-56
2021/07/23 02:42:17;;;;;;;22.75;14.00;;;;;;;;;;4984182;28;20674;-57
2021/07/23 02:44:43;;;;;;;19.13;12.68;;;;;;;;;;4982066;28;20042;-57
2021/07/23 02:47:08;;;;;;;21.98;13.57;;;;;;;;;;4984529;28;20456;-57
2021/07/23 02:49:34;;;;;;;22.38;13.23;;;;;;;;;;4983713;28;20690;-55
2021/07/23 02:52:00;;;;;;;18.85;12.07;;;;;;;;;;4983679;28;20488;-57
2021/07/23 02:54:26;;;;;;;21.02;12.80;;;;;;;;;;4983464;28;20046;-57
2021/07/23 02:56:52;;;;;;;20.65;11.65;;;;;;;;;;4983289;28;20582;-57
2021/07/23 02:59:17;;;;;;;21.58;12.75;;;;;;;;;;4983022;28;20038;-57
2021/07/23 03:01:43;;;;;;;22.27;12.77;;;;;;;;;;4982965;28;20639;-58
2021/07/23 03:04:09;;;;;;;20.90;12.50;;;;;;;;;;4984013;28;20038;-57
2021/07/23 03:06:35;;;;;;;21.17;13.02;;;;;;;;;;4981978;28;20577;-56
2021/07/23 03:09:00;;;;;;;28.27;12.23;;;;;;;;;;4995731;28;20132;-54
2021/07/23 03:11:26;;;;;;;22.15;12.30;;;;;;;;;;4982521;28;20759;-58
2021/07/23 03:13:52;;;;;;;21.55;12.25;;;;;;;;;;4982838;28;20129;-57
2021/07/23 03:16:18;;;;;;;20.48;11.77;;;;;;;;;;4982151;28;20104;-57
2021/07/23 03:18:44;;;;;;;19.27;11.50;;;;;;;;;;4983800;28;20376;-58
2021/07/23 03:21:09;;;;;;;20.10;12.02;;;;;;;;;;4989888;28;20099;-57
2021/07/23 03:23:35;;;;;;;27.38;12.27;;;;;;;;;;4983782;28;20355;-56
2021/07/23 03:26:05;;;;;;;22.05;11.07;;;;;;;;;;4982507;28;20129;-56
2021/07/23 03:28:31;;;;;;;24.40;11.68;;;;;;;;;;4982881;28;20066;-57
2021/07/23 03:30:57;;;;;;;17.95;11.05;;;;;;;;;;4982424;28;20129;-57
2021/07/23 03:33:22;;;;;;;18.98;11.13;;;;;;;;;;4983402;28;20046;-56
2021/07/23 03:35:48;;;;;;;18.25;11.38;;;;;;;;;;4982780;28;20045;-56
2021/07/23 03:38:14;;;;;;;19.13;11.30;;;;;;;;;;4983503;28;20598;-56
2021/07/23 03:40:40;;;;;;;19.52;11.93;;;;;;;;;;4979431;28;20050;-57
2021/07/23 03:43:05;;;;;;;24.23;11.38;;;;;;;;;;4982547;28;20057;-57
2021/07/23 03:45:31;;;;;;;19.38;10.73;;;;;;;;;;4995027;28;20049;-57
2021/07/23 03:47:57;;;;;;;19.02;10.73;;;;;;;;;;4983015;28;20042;-57
2021/07/23 03:50:23;;;;;;;21.88;11.27;;;;;;;;;;4987201;28;20104;-56
2021/07/23 03:52:48;;;;;;;22.75;11.98;;;;;;;;;;4987986;28;20046;-57
2021/07/23 03:55:16;;;;;;;22.92;12.07;;;;;;;;;;4985765;28;20046;-56
2021/07/23 03:57:42;;;;;;;27.75;12.82;;;;;;;;;;4988302;28;20146;-55
2021/07/23 04:00:08;;;;;;;17.20;10.95;;;;;;;;;;4988116;28;20744;-57
2021/07/23 04:02:35;;;;;;;18.45;11.65;;;;;;;;;;4987138;28;20046;-57
2021/07/23 04:05:01;;;;;;;23.10;11.70;;;;;;;;;;4984699;28;20042;-57
2021/07/23 04:07:29;;;;;;;18.73;11.20;;;;;;;;;;4985278;28;20041;-57
2021/07/23 04:09:55;;;;;;;18.50;11.35;;;;;;;;;;4992454;28;20042;-56
2021/07/23 04:12:20;;;;;;;20.83;11.38;;;;;;;;;;4985693;28;21689;-56
2021/07/23 04:14:46;;;;;;;19.83;11.38;;;;;;;;;;4986659;28;20042;-57
2021/07/23 04:17:12;;;;;;;21.63;11.50;;;;;;;;;;4989864;28;20077;-56
2021/07/23 04:19:38;;;;;;;25.40;12.38;;;;;;;;;;4988043;28;20594;-58
2021/07/23 04:22:04;;;;;;;17.70;11.20;;;;;;;;;;4988968;28;20185;-57
2021/07/23 04:24:30;;;;;;;21.20;11.65;;;;;;;;;;4988417;28;20041;-58
2021/07/23 04:26:58;;;;;;;20.92;11.23;;;;;;;;;;4990301;28;20049;-57
2021/07/23 04:29:24;;;;;;;20.75;11.15;;;;;;;;;;4986495;28;22029;-57
2021/07/23 04:31:50;;;;;;;21.70;12.07;;;;;;;;;;4986587;28;20042;-57
2021/07/23 04:34:16;;;;;;;24.23;11.32;;;;;;;;;;4989105;28;20100;-57
2021/07/23 04:36:42;;;;;;;23.58;11.88;;;;;;;;;;4989105;28;20037;-57
2021/07/23 04:39:07;;;;;;;20.40;10.93;;;;;;;;;;4990955;28;20053;-58
2021/07/23 04:41:33;;;;;;;23.70;12.00;;;;;;;;;;4991394;28;20070;-57
2021/07/23 04:43:59;;;;;;;19.25;11.30;;;;;;;;;;4993639;28;20117;-57
2021/07/23 04:46:25;;;;;;;18.70;11.35;;;;;;;;;;4992319;28;22785;-58
2021/07/23 04:48:51;;;;;;;21.77;11.77;;;;;;;;;;4992738;28;20034;-58
2021/07/23 04:51:16;;;;;;;22.50;11.77;;;;;;;;;;4994111;28;20065;-58
2021/07/23 04:53:42;;;;;;;21.20;12.25;;;;;;;;;;4993148;28;20462;-58
2021/07/23 04:56:08;;;;;;;25.85;12.32;;;;;;;;;;4993579;28;20065;-57
2021/07/23 04:58:34;;;;;;;22.42;12.82;;;;;;;;;;4993752;28;20423;-58
2021/07/23 05:01:00;;;;;;;24.20;12.55;;;;;;;;;;4994358;28;20050;-56
2021/07/23 05:03:44;;;;;;;21.92;12.13;;;;;;;;;;4992002;28;20415;-56
2021/07/23 05:06:09;;;;;;;19.88;12.48;;;;;;;;;;4998062;28;20038;-58
2021/07/23 05:08:35;;;;;;;27.75;13.65;;;;;;;;;;4993055;28;20048;-57
2021/07/23 05:11:02;;;;;;;23.40;13.05;;;;;;;;;;4991443;28;20049;-57
2021/07/23 05:13:29;;;;;;;26.48;11.02;;;;;;;;;;4991088;28;20062;-57
2021/07/23 05:15:55;;;;;;;24.25;12.48;;;;;;;;;;4991716;28;20035;-57
2021/07/23 05:18:21;;;;;;;22.20;12.30;;;;;;;;;;4994293;28;20046;-56
2021/07/23 05:20:47;;;;;;;21.67;11.70;;;;;;;;;;4990776;28;20038;-57
2021/07/23 05:23:13;;;;;;;24.73;12.70;;;;;;;;;;4991584;28;20077;-56
2021/07/23 05:25:39;;;;;;;23.33;12.70;;;;;;;;;;4989949;28;22160;-56
2021/07/23 05:28:05;;;;;;;22.58;12.20;;;;;;;;;;4990359;28;20369;-55
2021/07/23 05:30:31;;;;;;;25.05;11.50;;;;;;;;;;4991246;28;20042;-57
2021/07/23 05:32:56;;;;;;;21.75;12.50;;;;;;;;;;4991213;28;20053;-55
2021/07/23 05:35:22;;;;;;;22.02;11.95;;;;;;;;;;4989409;28;20038;-56
2021/07/23 05:37:48;;;;;;;26.67;12.25;;;;;;;;;;4987367;28;20068;-57
2021/07/23 05:40:16;;;;;;;27.38;13.02;;;;;;;;;;4991923;28;20088;-56
2021/07/23 05:42:42;;;;;;;25.80;12.90;;;;;;;;;;4990179;28;20161;-56
2021/07/23 05:45:08;;;;;;;24.20;12.70;;;;;;;;;;4991319;28;20047;-56
2021/07/23 05:47:34;;;;;;;31.88;13.73;;;;;;;;;;4989303;28;20034;-55
2021/07/23 05:50:00;;;;;;;21.02;12.90;;;;;;;;;;4993356;28;20580;-58
2021/07/23 05:52:25;;;;;;;22.98;13.43;;;;;;;;;;4992141;28;20093;-57
2021/07/23 05:54:51;;;;;;;22.88;12.82;;;;;;;;;;4990332;28;20038;-55
2021/07/23 05:57:17;;;;;;;21.77;12.30;;;;;;;;;;4993657;28;20046;-56
2021/07/23 05:59:45;;;;;;;22.65;13.00;;;;;;;;;;4994080;28;20407;-57
2021/07/23 06:02:11;;;;;;;24.77;13.23;;;;;;;;;;4992351;28;20057;-57
2021/07/23 06:04:37;;;;;;;33.63;13.55;;;;;;;;;;4989513;28;20044;-55
2021/07/23 06:07:04;;;;;;;29.42;12.73;;;;;;;;;;4992707;28;20042;-57
2021/07/23 06:09:30;;;;;;;26.17;13.77;;;;;;;;;;4991977;28;20589;-56
2021/07/23 06:11:56;;;;;;;22.48;12.15;;;;;;;;;;4991403;28;20418;-57
2021/07/23 06:14:22;;;;;;;25.25;12.73;;;;;;;;;;5002617;28;20046;-57
2021/07/23 06:16:47;;;;;;;26.27;13.05;;;;;;;;;;4990353;28;20041;-57
2021/07/23 06:19:13;;;;;;;24.65;11.48;;;;;;;;;;4989777;28;20053;-57
2021/07/23 06:21:39;;;;;;;22.90;12.18;;;;;;;;;;4989448;28;20530;-56
2021/07/23 06:24:05;;;;;;;22.48;11.25;;;;;;;;;;4988756;28;20049;-57
2021/07/23 06:26:31;;;;;;;21.38;11.43;;;;;;;;;;4990764;28;20419;-57
2021/07/23 06:28:56;;;;;;;19.25;11.93;;;;;;;;;;4990321;28;20043;-54
2021/07/23 06:31:22;;;;;;;21.23;11.57;;;;;;;;;;4990947;28;20185;-57
2021/07/23 06:33:48;;;;;;;24.35;11.70;;;;;;;;;;4989109;28;20038;-57
2021/07/23 06:36:14;;;;;;;21.48;11.23;;;;;;;;;;4989808;28;20088;-57
2021/07/23 06:38:40;;;;;;;22.13;12.23;;;;;;;;;;4988656;28;20042;-58
2021/07/23 06:41:06;;;;;;;21.35;11.65;;;;;;;;;;4989505;28;20039;-56
2021/07/23 06:43:32;;;;;;;18.67;11.25;;;;;;;;;;4987791;28;20095;-56
2021/07/23 06:46:00;;;;;;;21.60;12.13;;;;;;;;;;4997384;28;20041;-58
2021/07/23 06:48:26;;;;;;;21.92;12.07;;;;;;;;;;4989214;28;20402;-55
2021/07/23 06:50:52;;;;;;;19.10;11.40;;;;;;;;;;4989890;28;20061;-58
2021/07/23 06:53:18;;;;;;;20.38;11.48;;;;;;;;;;4989230;28;20144;-58
2021/07/23 06:55:44;;;;;;;20.73;11.48;;;;;;;;;;4989419;28;20466;-57
2021/07/23 06:58:10;;;;;;;26.77;12.68;;;;;;;;;;4991829;28;20042;-56
2021/07/23 07:00:36;;;;;;;21.45;12.13;;;;;;;;;;4988128;28;20038;-56
2021/07/23 07:03:03;;;;;;;22.10;12.60;;;;;;;;;;4989026;28;20103;-53
2021/07/23 07:05:29;;;;;;;19.98;10.63;;;;;;;;;;4986802;28;20031;-56
2021/07/23 07:07:55;;;;;;;25.90;12.38;;;;;;;;;;4990498;28;20038;-57
2021/07/23 07:10:21;;;;;;;26.42;12.35;;;;;;;;;;4988388;28;20212;-56
2021/07/23 07:12:46;;;;;;;28.17;12.50;;;;;;;;;;4989145;28;20149;-57
2021/07/23 07:15:12;;;;;;;24.85;12.80;;;;;;;;;;4988872;28;20140;-56
2021/07/23 07:17:38;;;;;;;23.67;12.45;;;;;;;;;;4989458;28;20047;-56
2021/07/23 07:20:04;;;;;;;24.55;12.90;;;;;;;;;;4989264;28;20046;-57
2021/07/23 07:22:33;;;;;;;29.58;13.00;;;;;;;;;;4988505;28;20053;-53
2021/07/23 07:24:59;;;;;;;22.60;13.02;;;;;;;;;;4989321;28;20046;-56
2021/07/23 07:27:24;;;;;;;21.40;12.80;;;;;;;;;;4991202;28;20634;-55
2021/07/23 07:29:50;;;;;;;20.40;11.75;;;;;;;;;;4989766;28;20395;-54
2021/07/23 07:32:16;;;;;;;28.05;12.50;;;;;;;;;;4988662;28;20042;-56
2021/07/23 07:34:42;;;;;;;23.83;11.93;;;;;;;;;;4987513;28;20074;-57
2021/07/23 07:37:08;;;;;;;24.83;12.80;;;;;;;;;;4988049;28;20046;-56
2021/07/23 07:39:33;;;;;;;22.75;12.30;;;;;;;;;;4988361;28;20037;-57
2021/07/23 07:42:02;;;;;;;19.17;11.93;;;;;;;;;;4987641;28;20104;-55
2021/07/23 07:44:28;;;;;;;28.40;13.23;;;;;;;;;;4989225;28;20038;-57
2021/07/23 07:46:54;;;;;;;23.58;12.18;;;;;;;;;;4989612;28;20121;-57
2021/07/23 07:49:20;;;;;;;24.05;12.35;;;;;;;;;;4987603;28;20038;-56
2021/07/23 07:51:46;;;;;;;21.90;12.35;;;;;;;;;;4989197;28;20030;-56
2021/07/23 07:54:12;;;;;;;23.80;12.93;;;;;;;;;;4988535;28;20050;-55
2021/07/23 07:56:38;;;;;;;21.30;12.02;;;;;;;;;;4987653;28;20886;-57
2021/07/23 07:59:04;;;;;;;26.98;11.85;;;;;;;;;;4988938;28;20104;-57
2021/07/23 08:01:30;;;;;;;21.30;11.48;;;;;;;;;;4989816;28;20054;-57
2021/07/23 08:03:56;;;;;;;21.58;11.48;;;;;;;;;;4988681;28;20588;-56
2021/07/23 08:06:27;;;;;;;27.75;12.18;;;;;;;;;;4988887;28;20046;-57
2021/07/23 08:08:54;;;;;;;19.13;11.43;;;;;;;;;;4991273;28;20035;-54
2021/07/23 08:11:20;;;;;;;22.67;12.40;;;;;;;;;;4989066;28;20034;-55
2021/07/23 08:13:46;;;;;;;20.77;12.55;;;;;;;;;;4991243;28;20725;-57
2021/07/23 08:16:12;;;;;;;22.02;12.93;;;;;;;;;;4989358;28;20042;-56
2021/07/23 08:18:39;;;;;;;24.83;12.27;;;;;;;;;;4992816;28;20041;-57
2021/07/23 08:21:05;;;;;;;21.83;11.00;;;;;;;;;;4993578;28;20061;-57
2021/07/23 08:23:32;;;;;;;24.20;11.82;;;;;;;;;;4993719;28;20125;-57
2021/07/23 08:25:59;;;;;;;21.55;11.52;;;;;;;;;;4993747;28;20545;-57
2021/07/23 08:28:26;;;;;;;24.08;12.07;;;;;;;;;;4992790;28;20415;-56
2021/07/23 08:30:52;;;;;;;26.58;12.52;;;;;;;;;;4996112;28;20117;-57
2021/07/23 08:33:22;;;;;;;22.15;12.73;;;;;;;;;;4995146;28;20395;-57
2021/07/23 08:35:48;;;;;;;21.00;12.23;;;;;;;;;;4991708;28;20162;-56
2021/07/23 08:38:14;;;;;;;23.83;12.77;;;;;;;;;;4993610;28;20053;-56
2021/07/23 08:40:40;;;;;;;21.13;11.75;;;;;;;;;;4993650;28;20046;-56
2021/07/23 08:43:05;;;;;;;23.65;11.70;;;;;;;;;;4992842;28;20909;-56
2021/07/23 08:45:31;;;;;;;21.20;12.45;;;;;;;;;;4991446;28;20046;-54
2021/07/23 08:47:57;;;;;;;24.67;12.32;;;;;;;;;;4995035;28;20057;-57
2021/07/23 08:50:26;;;;;;;23.75;11.95;;;;;;;;;;4992058;28;20038;-55
2021/07/23 08:52:54;;;;;;;24.08;11.60;;;;;;;;;;4992326;28;20039;-57
2021/07/23 08:55:20;;;;;;;23.50;12.80;;;;;;;;;;4992466;28;20635;-55
2021/07/23 08:57:47;;;;;;;24.85;12.70;;;;;;;;;;4993686;28;20084;-56
2021/07/23 09:00:17;;;;;;;25.27;12.85;;;;;;;;;;4992861;28;20442;-56
2021/07/23 09:02:49;;;;;;;24.55;13.43;;;;;;;;;;4988285;28;20136;-56
2021/07/23 09:05:15;;;;;;;24.17;12.05;;;;;;;;;;4992361;28;20041;-56
2021/07/23 09:07:41;;;;;;;19.80;12.05;;;;;;;;;;4992209;28;20459;-55
2021/07/23 09:10:07;;;;;;;25.85;12.77;;;;;;;;;;4992953;28;20038;-56
2021/07/23 09:12:43;;;;;;;19.90;11.98;;;;;;;;;;4991975;28;20042;-55
2021/07/23 09:15:19;;;;;;;28.20;13.00;;;;;;;;;;4991736;28;20038;-55
2021/07/23 09:17:45;;;;;;;23.38;13.13;;;;;;;;;;4993617;28;20053;-53
2021/07/23 09:20:11;;;;;;;27.02;12.68;;;;;;;;;;4992078;28;20054;-55
2021/07/23 09:22:47;;;;;;;20.90;12.05;;;;;;;;;;4991443;28;22512;-55
2021/07/23 09:25:14;;;;;;;22.58;12.10;;;;;;;;;;4990269;28;20157;-55
2021/07/23 09:27:40;;;;;;;24.42;12.38;;;;;;;;;;4991479;28;20034;-56
2021/07/23 09:30:07;;;;;;;22.48;12.18;;;;;;;;;;4991491;28;20038;-55
2021/07/23 09:32:33;;;;;;;27.52;14.25;;;;;;;;;;4989835;28;20167;-57
2021/07/23 09:35:19;;;;;;;24.40;12.32;;;;;;;;;;4989083;28;20041;-57
2021/07/23 09:37:54;;;;;;;23.45;12.35;;;;;;;;;;4989694;28;20038;-57
2021/07/23 09:40:21;;;;;;;27.60;13.60;;;;;;;;;;4988481;28;20038;-56
2021/07/23 09:42:56;;;;;;;23.17;12.57;;;;;;;;;;4991748;28;20050;-55
2021/07/23 09:45:25;;;;;;;23.05;12.35;;;;;;;;;;4989306;28;20042;-56
2021/07/23 09:47:51;;;;;;;20.90;12.30;;;;;;;;;;4992112;28;20929;-56
2021/07/23 09:50:17;;;;;;;21.25;11.93;;;;;;;;;;4991864;28;20048;-56
2021/07/23 09:52:43;;;;;;;24.27;12.10;;;;;;;;;;4990700;28;21008;-55
2021/07/23 09:55:09;;;;;;;22.48;12.18;;;;;;;;;;4989739;28;20124;-57
2021/07/23 09:57:35;;;;;;;27.83;12.98;;;;;;;;;;4989032;28;20205;-55
2021/07/23 10:00:06;;;;;;;21.05;11.85;;;;;;;;;;4990865;28;20129;-52
2021/07/23 10:02:33;;;;;;;28.88;12.77;;;;;;;;;;4987518;28;20092;-56
2021/07/23 10:05:03;;;;;;;21.83;12.40;;;;;;;;;;4991462;28;20094;-55
2021/07/23 10:07:33;;;;;;;27.17;12.85;;;;;;;;;;4990892;28;20111;-55
2021/07/23 10:09:59;;;;;;;22.48;12.82;;;;;;;;;;4991632;28;20038;-56
2021/07/23 10:12:26;;;;;;;23.27;12.50;;;;;;;;;;4988869;28;20053;-56
2021/07/23 10:14:52;;;;;;;23.42;13.27;;;;;;;;;;4990827;28;20052;-56
2021/07/23 10:17:19;;;;;;;28.17;12.73;;;;;;;;;;4989252;28;20121;-56
2021/07/23 10:19:45;;;;;;;21.17;12.50;;;;;;;;;;4989083;28;20037;-56
2021/07/23 10:22:12;;;;;;;22.48;12.38;;;;;;;;;;4990588;28;20088;-56
2021/07/23 10:24:38;;;;;;;23.55;12.77;;;;;;;;;;4990508;28;20042;-54
2021/07/23 10:27:05;;;;;;;22.40;11.75;;;;;;;;;;4990904;28;20091;-54
2021/07/23 10:29:46;;;;;;;25.30;11.80;;;;;;;;;;5001892;28;20424;-56
2021/07/23 10:32:27;;;;;;;23.95;12.55;;;;;;;;;;4990302;28;20042;-56
2021/07/23 10:34:56;;;;;;;24.55;11.40;;;;;;;;;;4988985;28;20072;-56
2021/07/23 10:37:31;;;;;;;25.95;12.75;;;;;;;;;;4988918;28;20038;-55
2021/07/23 10:40:17;;;;;;;21.10;12.23;;;;;;;;;;4989292;28;20492;-56
2021/07/23 10:42:44;;;;;;;22.38;11.75;;;;;;;;;;4990320;28;20511;-56
2021/07/23 10:45:16;;;;;;;22.73;11.00;;;;;;;;;;4990009;28;20042;-56
2021/07/23 10:47:44;;;;;;;24.47;11.70;;;;;;;;;;4990195;28;20038;-55
2021/07/23 10:50:30;;;;;;;18.73;11.05;;;;;;;;;;4989196;28;21000;-56
2021/07/23 10:52:55;;;;;;;22.30;11.77;;;;;;;;;;4983677;28;20041;-55
2021/07/23 10:55:22;;;;;;;21.65;12.20;;;;;;;;;;4987513;28;20065;-56
2021/07/23 10:58:09;;;;;;;22.13;11.95;;;;;;;;;;4991413;28;20042;-56
2021/07/23 11:00:55;;;;;;;24.83;12.75;;;;;;;;;;4988599;28;20046;-55
2021/07/23 11:03:43;;;;;;;21.25;11.45;;;;;;;;;;4990803;28;20079;-55
2021/07/23 11:06:22;;;;;;;21.05;11.27;;;;;;;;;;4988258;28;20168;-55
2021/07/23 11:08:48;;;;;;;28.73;11.98;;;;;;;;;;4989063;28;20450;-55
2021/07/23 11:11:14;;;;;;;22.52;11.38;;;;;;;;;;4988113;28;20038;-55
2021/07/23 11:13:40;;;;;;;20.38;10.77;;;;;;;;;;4988599;28;20045;-53
2021/07/23 11:16:13;;;;;;;20.95;11.05;;;;;;;;;;4988273;28;20673;-55
2021/07/23 11:18:55;;;;;;;26.45;11.45;;;;;;;;;;4988771;28;20181;-56
2021/07/23 11:21:21;;;;;;;21.23;10.70;;;;;;;;;;4988878;28;20536;-55
2021/07/23 11:23:47;;;;;;;17.88;10.65;;;;;;;;;;4988092;28;20038;-54
2021/07/23 11:26:22;;;;;;;20.70;11.10;;;;;;;;;;4991957;28;20057;-56
2021/07/23 11:28:49;;;;;;;23.98;11.38;;;;;;;;;;4986976;28;20064;-55
2021/07/23 11:31:32;;;;;;;18.65;10.82;;;;;;;;;;4989856;28;20082;-52
2021/07/23 11:34:18;;;;;;;20.70;11.57;;;;;;;;;;4984994;28;20478;-54
2021/07/23 11:36:43;;;;;;;19.92;11.63;;;;;;;;;;4987812;28;20131;-55
2021/07/23 11:39:09;;;;;;;24.85;11.43;;;;;;;;;;4989647;28;20042;-53
2021/07/23 11:41:35;;;;;;;24.17;11.88;;;;;;;;;;4989657;28;20050;-56
2021/07/23 11:44:08;;;;;;;19.13;11.57;;;;;;;;;;4988380;28;20034;-55
2021/07/23 11:46:34;;;;;;;20.35;11.52;;;;;;;;;;4987913;28;20048;-56
2021/07/23 11:49:01;;;;;;;26.10;12.70;;;;;;;;;;4987629;28;20113;-55
2021/07/23 11:51:37;;;;;;;23.27;11.68;;;;;;;;;;4987360;28;20097;-53
2021/07/23 11:54:02;;;;;;;22.73;12.15;;;;;;;;;;4988165;28;20453;-55
2021/07/23 11:56:32;;;;;;;22.83;12.30;;;;;;;;;;4987468;28;20038;-54
2021/07/23 11:58:58;;;;;;;24.70;12.00;;;;;;;;;;4989291;28;20120;-54
2021/07/23 12:01:26;;;;;;;27.52;13.70;;;;;;;;;;4989700;28;20064;-56
2021/07/23 12:03:55;;;;;;;21.23;12.15;;;;;;;;;;4987196;28;20709;-56
2021/07/23 12:06:31;;;;;;;22.00;11.57;;;;;;;;;;4990110;28;20437;-54
2021/07/23 12:08:58;;;;;;;24.33;12.95;;;;;;;;;;4989470;28;20057;-56
2021/07/23 12:11:24;;;;;;;21.55;12.25;;;;;;;;;;4987704;28;20070;-56
2021/07/23 12:13:50;;;;;;;21.90;12.48;;;;;;;;;;4986797;28;20109;-55
2021/07/23 12:16:17;;;;;;;24.17;11.73;;;;;;;;;;4987081;28;20041;-55
2021/07/23 12:18:56;;;;;;;21.85;12.15;;;;;;;;;;4985741;28;20038;-55
2021/07/23 12:21:23;;;;;;;22.50;12.13;;;;;;;;;;4988430;28;20049;-57
2021/07/23 12:23:55;;;;;;;26.02;12.52;;;;;;;;;;4987046;28;20034;-57
2021/07/23 12:26:29;;;;;;;25.95;11.88;;;;;;;;;;4988827;28;20039;-55
2021/07/23 12:28:56;;;;;;;27.60;13.50;;;;;;;;;;4988460;28;20104;-55
2021/07/23 12:31:22;;;;;;;22.63;11.68;;;;;;;;;;4986982;28;20164;-57
2021/07/23 12:33:59;;;;;;;22.73;12.13;;;;;;;;;;4986501;28;20081;-54
2021/07/23 12:36:25;;;;;;;20.95;12.50;;;;;;;;;;4987341;28;20038;-54
2021/07/23 12:39:01;;;;;;;26.92;12.98;;;;;;;;;;4989186;28;20826;-55
2021/07/23 12:41:27;;;;;;;23.60;12.18;;;;;;;;;;4990799;28;20415;-56
2021/07/23 12:44:08;;;;;;;25.65;13.05;;;;;;;;;;4987507;28;20037;-57
2021/07/23 12:46:35;;;;;;;22.20;12.82;;;;;;;;;;4988194;28;20046;-56
2021/07/23 12:49:10;;;;;;;20.60;12.63;;;;;;;;;;4989021;28;20069;-57
2021/07/23 12:51:36;;;;;;;23.52;12.07;;;;;;;;;;4987678;28;20116;-56
2021/07/23 12:54:01;;;;;;;23.50;11.68;;;;;;;;;;4989416;28;20189;-56
2021/07/23 12:56:31;;;;;;;24.80;13.60;;;;;;;;;;4989109;28;20075;-56
2021/07/23 12:58:57;;;;;;;21.58;12.40;;;;;;;;;;4984487;28;20407;-57
2021/07/23 13:01:23;;;;;;;24.45;12.25;;;;;;;;;;4981063;28;20395;-57
2021/07/23 13:03:49;;;;;;;26.52;13.05;;;;;;;;;;4983973;28;20044;-54
2021/07/23 13:06:20;;;;;;;21.05;12.43;;;;;;;;;;4986437;28;20048;-57
2021/07/23 13:08:46;;;;;;;25.33;13.15;;;;;;;;;;4986011;28;20080;-56
2021/07/23 13:11:12;;;;;;;23.67;12.90;;;;;;;;;;4987590;28;20108;-57
2021/07/23 13:13:40;;;;;;;22.23;12.73;;;;;;;;;;4993435;28;20050;-57
2021/07/23 13:16:09;;;;;;;28.90;13.45;;;;;;;;;;4992602;28;20053;-57
2021/07/23 13:18:35;;;;;;;25.45;13.35;;;;;;;;;;4991944;28;20064;-57
2021/07/23 13:21:05;;;;;;;28.98;13.65;;;;;;;;;;4992416;28;22054;-57
2021/07/23 13:23:33;;;;;;;28.13;13.43;;;;;;;;;;4989589;28;20042;-57
2021/07/23 13:26:00;;;;;;;22.25;12.27;;;;;;;;;;4991869;28;20041;-57
2021/07/23 13:28:26;;;;;;;22.38;12.35;;;;;;;;;;4988990;28;20048;-57
2021/07/23 13:30:52;;;;;;;27.70;12.98;;;;;;;;;;4986408;28;20058;-57
2021/07/23 13:33:18;;;;;;;27.40;13.00;;;;;;;;;;4985117;28;20172;-57
2021/07/23 13:35:45;;;;;;;29.13;13.27;;;;;;;;;;4985403;28;20045;-56
2021/07/23 13:38:15;;;;;;;22.67;12.57;;;;;;;;;;4986253;28;20050;-57
2021/07/23 13:40:41;;;;;;;22.35;13.00;;;;;;;;;;4985197;28;20076;-57
2021/07/23 13:43:10;;;;;;;23.77;13.48;;;;;;;;;;4984537;28;20547;-57
2021/07/23 13:45:36;;;;;;;24.65;13.40;;;;;;;;;;4983948;28;20046;-57
2021/07/23 13:48:02;;;;;;;23.85;12.40;;;;;;;;;;4984980;28;20115;-56
2021/07/23 13:50:28;;;;;;;26.98;13.40;;;;;;;;;;4985570;28;20506;-56
2021/07/23 13:52:54;;;;;;;24.42;13.60;;;;;;;;;;4984895;28;20046;-57
2021/07/23 13:55:20;;;;;;;24.02;12.73;;;;;;;;;;4984542;28;20057;-57
2021/07/23 13:57:48;;;;;;;26.23;14.15;;;;;;;;;;4986009;28;20447;-57
2021/07/23 14:00:14;;;;;;;28.00;14.07;;;;;;;;;;4984028;28;20117;-57
2021/07/23 14:02:40;;;;;;;25.30;14.45;;;;;;;;;;4982866;28;20047;-57
2021/07/23 14:05:07;;;;;;;29.13;15.07;;;;;;;;;;4985395;28;20505;-57
2021/07/23 14:07:33;;;;;;;25.13;15.10;;;;;;;;;;4983733;28;20034;-57
2021/07/23 14:10:04;;;;;;;24.27;14.98;;;;;;;;;;4984790;28;20069;-56
2021/07/23 14:12:31;;;;;;;26.08;15.15;;;;;;;;;;4984385;28;20038;-57
2021/07/23 14:14:57;;;;;;;27.67;15.70;;;;;;;;;;4984903;28;20064;-57
2021/07/23 14:17:23;;;;;;;28.65;16.77;;;;;;;;;;4984686;28;20034;-56